Time;durP1;ratioP1;P1;durP2;ratioP2;P2;SDS_P1;SDS_P2;PMS_P1;PMS_P2;Temp;Humidity;BMP_temperature;BMP_pressure;BME280_temperature;BME280_humidity;BME280_pressure;Samples;Min_cycle;Max_cycle;Signal;HPM_P1;HPM_P2
2023/06/01 00:01:51;;;;;;;18.60;8.65;;;;;;;-146.27;80.17;82870.34;5037403;28;20029;-69
2023/06/01 00:04:19;;;;;;;17.55;7.97;;;;;;;-146.27;79.91;82850.25;5041043;28;20119;-69
2023/06/01 00:06:44;;;;;;;17.75;8.38;;;;;;;-146.27;79.93;82848.25;5037163;28;20057;-71
2023/06/01 00:09:10;;;;;;;16.95;7.38;;;;;;;-146.27;79.86;82874.38;5038142;28;20053;-70
2023/06/01 00:11:36;;;;;;;17.00;7.03;;;;;;;-146.27;80.27;82856.28;5036412;28;20030;-70
2023/06/01 00:14:01;;;;;;;12.93;6.85;;;;;;;-146.27;80.04;82826.16;5036117;28;20041;-71
2023/06/01 00:16:28;;;;;;;14.27;7.40;;;;;;;-146.27;79.36;82834.19;5034979;28;20029;-69
2023/06/01 00:18:55;;;;;;;13.02;6.03;;;;;;;-146.27;79.67;82814.09;5039236;28;20025;-69
2023/06/01 00:21:21;;;;;;;12.10;6.63;;;;;;;-146.27;79.31;82862.31;5034192;28;20028;-69
2023/06/01 00:23:47;;;;;;;11.50;5.97;;;;;;;-146.27;80.25;82866.31;5037741;28;20397;-71
2023/06/01 00:26:13;;;;;;;14.02;5.68;;;;;;;-146.27;79.96;82862.31;5032257;28;20505;-70
2023/06/01 00:28:39;;;;;;;10.05;5.85;;;;;;;-146.27;79.70;82894.47;5039772;28;20079;-69
2023/06/01 00:31:04;;;;;;;12.18;5.55;;;;;;;-146.27;81.10;82822.13;5034537;28;20056;-69
2023/06/01 00:33:30;;;;;;;13.93;6.32;;;;;;;-146.27;80.37;82834.19;5035378;28;20020;-69
2023/06/01 00:35:55;;;;;;;12.07;5.47;;;;;;;-146.27;80.05;82858.28;5035535;28;20433;-69
2023/06/01 00:38:21;;;;;;;12.20;5.15;;;;;;;-146.27;80.97;82902.50;5034091;28;20028;-70
2023/06/01 00:40:50;;;;;;;12.48;5.10;;;;;;;-146.27;80.38;82878.38;5035779;28;20056;-69
2023/06/01 00:43:16;;;;;;;10.57;6.30;;;;;;;-146.27;80.07;82876.38;5047351;28;20026;-69
2023/06/01 00:45:41;;;;;;;11.98;5.75;;;;;;;-146.27;80.03;82862.31;5035878;28;20592;-71
2023/06/01 00:48:06;;;;;;;8.98;5.45;;;;;;;-146.27;80.30;82854.28;5036506;28;20031;-70
2023/06/01 00:50:32;;;;;;;9.55;5.40;;;;;;;-146.27;80.73;82836.19;5041709;28;20032;-69
2023/06/01 00:53:00;;;;;;;10.32;5.13;;;;;;;-146.27;80.28;82860.31;5040135;28;21938;-69
2023/06/01 00:55:26;;;;;;;18.98;6.18;;;;;;;-146.27;80.24;82856.28;5040851;28;20036;-70
2023/06/01 00:57:53;;;;;;;10.75;5.70;;;;;;;-146.27;79.87;82818.13;5040482;28;20421;-71
2023/06/01 01:00:18;;;;;;;10.40;5.55;;;;;;;-146.27;79.36;82834.19;5037401;28;20030;-69
2023/06/01 01:02:48;;;;;;;11.35;5.65;;;;;;;-146.27;80.05;82848.25;5038071;28;20075;-70
2023/06/01 01:05:15;;;;;;;10.55;5.78;;;;;;;-146.27;79.53;82842.22;5038545;28;20511;-69
2023/06/01 01:07:41;;;;;;;15.05;5.90;;;;;;;-146.27;80.30;82810.06;5035842;28;20025;-74
2023/06/01 01:10:19;;;;;;;11.88;5.90;;;;;;;-146.27;80.03;82822.13;5044173;28;20040;-75
2023/06/01 01:12:50;;;;;;;9.63;5.25;;;;;;;-146.27;79.49;82838.19;5047026;28;20045;-75
2023/06/01 01:15:24;;;;;;;9.98;5.68;;;;;;;-146.27;79.32;82834.19;5048538;28;20052;-75
2023/06/01 01:17:56;;;;;;;12.48;5.70;;;;;;;-146.27;79.39;82882.41;5041879;28;20036;-73
2023/06/01 01:20:28;;;;;;;11.18;5.95;;;;;;;-146.27;79.44;82884.41;5049799;28;20036;-74
2023/06/01 01:23:25;;;;;;;11.50;6.80;;;;;;;-146.27;79.53;82804.06;5050772;28;20524;-74
2023/06/01 01:26:10;;;;;;;11.93;6.32;;;;;;;-146.27;79.47;82808.06;5020864;28;20092;-75
2023/06/01 01:28:46;;;;;;;14.55;7.28;;;;;;;-146.27;79.61;82862.31;5047840;28;20041;-74
2023/06/01 01:31:16;;;;;;;13.63;6.68;;;;;;;-146.27;80.80;82890.44;5034479;28;20032;-74
2023/06/01 01:33:43;;;;;;;14.65;6.00;;;;;;;-146.27;80.31;82862.31;5051131;28;20024;-74
2023/06/01 01:36:09;;;;;;;16.05;6.47;;;;;;;-146.27;80.18;82910.53;5047169;28;20035;-73
2023/06/01 01:38:36;;;;;;;14.90;7.07;;;;;;;-146.27;80.24;82858.28;5048310;28;20123;-74
2023/06/01 01:41:02;;;;;;;14.65;6.95;;;;;;;-146.27;80.43;82934.63;5044506;28;20025;-75
2023/06/01 01:43:29;;;;;;;13.75;6.80;;;;;;;-146.27;81.25;82910.53;5049535;28;20037;-75
2023/06/01 01:46:05;;;;;;;19.92;6.80;;;;;;;-146.27;81.41;82874.38;5045937;28;20024;-69
2023/06/01 01:48:48;;;;;;;12.50;6.40;;;;;;;-146.27;80.92;82898.47;5050936;28;20032;-68
2023/06/01 01:51:20;;;;;;;16.50;6.97;;;;;;;-146.27;80.58;82878.38;5049683;28;20443;-70
2023/06/01 01:53:50;;;;;;;10.52;6.22;;;;;;;-146.27;80.52;82924.59;5030685;28;20029;-69
2023/06/01 01:56:18;;;;;;;16.00;7.00;;;;;;;-146.27;81.57;82864.31;5043856;28;20067;-69
2023/06/01 01:58:45;;;;;;;15.25;6.72;;;;;;;-146.27;81.23;82896.47;5054110;28;20027;-69
2023/06/01 02:01:12;;;;;;;11.77;6.57;;;;;;;-146.27;80.63;82896.47;5053499;28;20078;-68
2023/06/01 02:03:37;;;;;;;13.80;6.40;;;;;;;-146.27;81.04;82910.53;5058257;28;20021;-69
2023/06/01 02:06:02;;;;;;;17.35;6.63;;;;;;;-146.27;80.27;82856.28;5062671;28;20079;-70
2023/06/01 02:08:28;;;;;;;12.15;6.63;;;;;;;-146.27;80.55;82874.38;5042235;28;20027;-70
2023/06/01 02:10:53;;;;;;;12.68;6.50;;;;;;;-146.27;80.70;82912.53;5049275;28;20433;-69
2023/06/01 02:13:18;;;;;;;15.00;6.47;;;;;;;-146.27;80.30;82864.31;5034485;28;20076;-69
2023/06/01 02:15:44;;;;;;;10.70;6.25;;;;;;;-146.27;80.18;82892.44;5037310;28;20033;-69
2023/06/01 02:18:09;;;;;;;12.55;6.20;;;;;;;-146.27;80.60;82902.50;5049665;28;20087;-68
2023/06/01 02:20:34;;;;;;;11.93;5.93;;;;;;;-146.27;80.14;82886.41;5052406;28;20035;-69
2023/06/01 02:23:00;;;;;;;9.50;6.13;;;;;;;-146.27;80.24;82906.50;5049830;28;20025;-69
2023/06/01 02:25:25;;;;;;;12.57;5.80;;;;;;;-146.27;79.83;82886.41;5037693;28;20033;-69
2023/06/01 02:27:50;;;;;;;15.20;7.30;;;;;;;-146.27;79.97;82922.59;5034253;28;20094;-69
2023/06/01 02:30:16;;;;;;;10.85;5.60;;;;;;;-146.27;80.82;82910.53;5049234;28;20491;-69
2023/06/01 02:32:44;;;;;;;13.32;5.60;;;;;;;-146.27;80.32;82894.47;5052539;28;20384;-69
2023/06/01 02:35:10;;;;;;;17.52;6.00;;;;;;;-146.27;81.39;82946.69;5050921;28;20457;-69
2023/06/01 02:37:35;;;;;;;11.93;6.10;;;;;;;-146.27;80.77;82918.56;5053229;28;20058;-68
2023/06/01 02:40:00;;;;;;;12.88;5.45;;;;;;;-146.27;79.89;82910.53;5052823;28;20029;-69
2023/06/01 02:42:26;;;;;;;10.93;5.60;;;;;;;-146.27;79.53;82926.59;5040793;28;20025;-70
2023/06/01 02:44:51;;;;;;;11.00;5.80;;;;;;;-146.27;80.04;82902.50;5052991;28;20123;-68
2023/06/01 02:47:16;;;;;;;14.90;5.57;;;;;;;-146.27;80.04;82984.88;5045767;28;20510;-68
2023/06/01 02:49:42;;;;;;;11.55;6.50;;;;;;;-146.27;79.47;82904.50;5037384;28;20705;-68
2023/06/01 02:52:07;;;;;;;11.60;5.82;;;;;;;-146.27;79.26;82956.75;5043181;28;20025;-69
2023/06/01 02:54:33;;;;;;;14.57;6.38;;;;;;;-146.27;78.42;82920.56;5044565;28;20021;-68
2023/06/01 02:56:58;;;;;;;14.82;6.85;;;;;;;-146.27;78.94;82928.59;5053704;28;20114;-69
2023/06/01 02:59:23;;;;;;;12.93;6.65;;;;;;;-146.27;79.31;82954.72;5053145;28;20159;-69
2023/06/01 03:01:49;;;;;;;12.10;6.53;;;;;;;-146.27;79.55;82946.69;5052649;28;20025;-69
2023/06/01 03:04:14;;;;;;;10.48;5.70;;;;;;;-146.27;80.62;82966.78;5042846;28;20037;-69
2023/06/01 03:06:40;;;;;;;10.63;5.97;;;;;;;-146.27;80.95;82950.72;5043937;28;20032;-70
2023/06/01 03:09:12;;;;;;;10.75;6.55;;;;;;;-146.27;79.90;82910.53;5044829;28;20036;-69
2023/06/01 03:11:40;;;;;;;14.65;6.78;;;;;;;-146.27;79.63;82974.81;5046860;28;20040;-68
2023/06/01 03:14:05;;;;;;;12.65;6.88;;;;;;;-146.27;79.72;83008.97;5053000;28;20043;-69
2023/06/01 03:16:30;;;;;;;12.45;5.80;;;;;;;-146.27;79.89;83015.00;5050139;28;20116;-69
2023/06/01 03:18:56;;;;;;;15.60;5.93;;;;;;;-146.27;79.80;82994.91;5049057;28;20437;-70
2023/06/01 03:21:21;;;;;;;11.65;6.25;;;;;;;-146.27;79.77;83006.97;5044575;28;20021;-69
2023/06/01 03:23:46;;;;;;;15.30;6.07;;;;;;;-146.27;79.76;82978.84;5041969;28;20021;-69
2023/06/01 03:26:12;;;;;;;13.10;6.40;;;;;;;-146.27;80.15;83027.06;5050444;28;20051;-69
2023/06/01 03:28:38;;;;;;;12.68;6.20;;;;;;;-146.27;80.35;83083.31;5051435;28;20084;-69
2023/06/01 03:31:04;;;;;;;10.82;5.85;;;;;;;-146.27;80.72;83059.19;5043084;28;20091;-74
2023/06/01 03:33:30;;;;;;;15.27;6.35;;;;;;;-146.27;80.89;83035.09;5039813;28;20483;-73
2023/06/01 03:35:56;;;;;;;10.05;4.80;;;;;;;-146.27;80.98;83083.31;5046744;28;20071;-75
2023/06/01 03:38:21;;;;;;;14.30;5.88;;;;;;;-146.27;81.52;83079.28;5044199;28;20067;-74
2023/06/01 03:40:47;;;;;;;12.02;5.28;;;;;;;-146.27;81.19;83041.13;5053082;28;20508;-74
2023/06/01 03:43:12;;;;;;;13.05;5.45;;;;;;;-146.27;81.41;83091.34;5036020;28;20029;-74
2023/06/01 03:45:38;;;;;;;9.35;5.22;;;;;;;-146.27;81.67;83095.38;5043754;28;20036;-74
2023/06/01 03:48:03;;;;;;;9.77;4.93;;;;;;;-146.27;81.92;83079.28;5045524;28;20476;-74
2023/06/01 03:50:29;;;;;;;19.23;6.22;;;;;;;-146.27;81.61;83087.31;5052590;28;20445;-74
2023/06/01 03:52:55;;;;;;;12.32;5.57;;;;;;;-146.27;82.35;83121.47;5053328;28;20037;-75
2023/06/01 03:55:20;;;;;;;10.73;5.78;;;;;;;-146.27;81.82;83043.13;5052811;28;20021;-75
2023/06/01 03:57:46;;;;;;;15.55;5.43;;;;;;;-146.27;81.81;83057.19;5048249;28;20029;-75
2023/06/01 04:00:20;;;;;;;9.38;5.63;;;;;;;-146.27;81.82;83053.16;5051523;28;20130;-75
2023/06/01 04:02:54;;;;;;;16.65;5.35;;;;;;;-146.27;81.97;83075.28;5049788;28;20083;-76
2023/06/01 04:05:21;;;;;;;12.50;5.43;;;;;;;-146.27;82.04;83015.00;5052697;28;20049;-76
2023/06/01 04:07:50;;;;;;;10.50;4.85;;;;;;;-146.27;82.71;83055.19;5035203;28;20122;-76
2023/06/01 04:10:16;;;;;;;13.55;5.70;;;;;;;-146.27;83.00;83071.25;5048181;28;20047;-75
2023/06/01 04:12:43;;;;;;;14.10;5.60;;;;;;;-146.27;81.79;83027.06;5049376;28;20041;-73
2023/06/01 04:15:13;;;;;;;15.05;5.85;;;;;;;-146.27;82.25;83047.16;5049974;28;20082;-74
2023/06/01 04:17:40;;;;;;;10.35;5.93;;;;;;;-146.27;81.62;83015.00;5048540;28;20032;-75
2023/06/01 04:20:07;;;;;;;15.25;6.00;;;;;;;-146.27;80.89;83002.94;5038074;28;20029;-74
2023/06/01 04:22:36;;;;;;;14.95;6.18;;;;;;;-146.27;81.90;83019.03;5052197;28;20086;-75
2023/06/01 04:25:03;;;;;;;10.98;5.07;;;;;;;-146.27;80.99;83049.16;5051516;28;20029;-75
2023/06/01 04:27:29;;;;;;;13.90;5.90;;;;;;;-146.27;80.72;83019.03;5051668;28;20467;-73
2023/06/01 04:29:54;;;;;;;13.70;5.82;;;;;;;-146.27;80.16;83023.03;5044257;28;20033;-75
2023/06/01 04:32:22;;;;;;;10.70;5.70;;;;;;;-146.27;80.02;83049.16;5039608;28;20029;-75
2023/06/01 04:34:49;;;;;;;15.82;6.28;;;;;;;-146.27;80.58;83083.31;5035146;28;20029;-74
2023/06/01 04:37:15;;;;;;;11.90;6.22;;;;;;;-146.27;80.45;83047.16;5044292;28;20036;-75
2023/06/01 04:39:42;;;;;;;12.25;6.35;;;;;;;-146.27;80.15;83107.41;5032517;28;20533;-74
2023/06/01 04:42:08;;;;;;;10.45;5.82;;;;;;;-146.27;80.89;83091.34;5046581;28;20427;-74
2023/06/01 04:44:34;;;;;;;11.60;5.30;;;;;;;-146.27;80.46;83055.19;5049395;28;20096;-75
2023/06/01 04:47:03;;;;;;;20.92;7.18;;;;;;;-146.27;81.63;83073.25;5044679;28;20112;-75
2023/06/01 04:49:29;;;;;;;11.68;5.57;;;;;;;-146.27;81.71;83063.22;5041835;28;20031;-75
2023/06/01 04:51:55;;;;;;;15.23;6.60;;;;;;;-146.27;81.92;83027.06;5043154;28;20463;-75
2023/06/01 04:54:20;;;;;;;14.52;5.85;;;;;;;-146.27;82.14;83057.19;5051073;28;20109;-75
2023/06/01 04:56:45;;;;;;;13.65;6.57;;;;;;;-146.27;82.19;83035.09;5037794;28;20029;-74
2023/06/01 04:59:11;;;;;;;12.25;5.75;;;;;;;-146.27;81.99;83029.06;5031233;28;20033;-75
2023/06/01 05:01:37;;;;;;;13.15;6.05;;;;;;;-146.27;81.41;83015.00;5032166;28;20034;-75
2023/06/01 05:04:03;;;;;;;14.80;6.78;;;;;;;-146.27;81.08;83047.16;5037485;28;20033;-74
2023/06/01 05:06:28;;;;;;;12.85;6.28;;;;;;;-146.27;81.69;82990.88;5032941;28;20104;-73
2023/06/01 05:08:54;;;;;;;12.35;6.03;;;;;;;-146.27;80.78;82970.81;5045325;28;20039;-74
2023/06/01 05:11:21;;;;;;;12.52;6.45;;;;;;;-146.27;80.80;83023.03;5040092;28;20120;-75
2023/06/01 05:13:46;;;;;;;12.10;6.10;;;;;;;-146.27;80.99;83025.03;5047965;28;20041;-74
2023/06/01 05:16:12;;;;;;;14.77;6.93;;;;;;;-146.27;81.39;83010.97;5043075;28;20033;-74
2023/06/01 05:18:38;;;;;;;13.95;6.88;;;;;;;-146.27;81.11;82972.81;5044799;28;20032;-75
2023/06/01 05:21:03;;;;;;;14.60;6.75;;;;;;;-146.27;81.13;82978.84;5044031;28;20526;-74
2023/06/01 05:23:29;;;;;;;14.25;6.70;;;;;;;-146.27;80.49;82966.78;5040906;28;20029;-73
2023/06/01 05:26:01;;;;;;;14.73;7.15;;;;;;;-146.27;80.25;82958.75;5043625;28;20036;-74
2023/06/01 05:28:29;;;;;;;15.00;6.20;;;;;;;-146.27;80.21;82964.78;5032616;28;20109;-74
2023/06/01 05:30:54;;;;;;;20.23;6.72;;;;;;;-146.27;80.43;83006.97;5036717;28;20115;-74
2023/06/01 05:33:20;;;;;;;12.48;6.65;;;;;;;-146.27;80.51;82928.59;5042256;28;20111;-68
2023/06/01 05:35:45;;;;;;;17.88;7.50;;;;;;;-146.27;80.88;82978.84;5044815;28;20410;-67
2023/06/01 05:38:10;;;;;;;12.48;6.40;;;;;;;-146.27;80.49;82960.75;5048905;28;20638;-69
2023/06/01 05:40:36;;;;;;;11.63;6.63;;;;;;;-146.27;79.85;82938.66;5032777;28;20054;-70
2023/06/01 05:43:01;;;;;;;16.80;8.63;;;;;;;-146.27;80.45;82872.34;5031567;28;20025;-69
2023/06/01 05:45:26;;;;;;;14.82;7.78;;;;;;;-146.27;81.21;82934.63;5038420;28;20543;-70
2023/06/01 05:47:52;;;;;;;13.20;7.05;;;;;;;-146.27;79.83;82896.47;5030095;28;20108;-66
2023/06/01 05:50:17;;;;;;;14.35;7.78;;;;;;;-146.27;79.95;82952.72;5035526;28;20077;-72
2023/06/01 05:52:42;;;;;;;21.08;7.93;;;;;;;-146.27;79.37;82910.53;5033353;28;20026;-72
2023/06/01 05:55:09;;;;;;;17.55;7.07;;;;;;;-146.27;79.89;82918.56;5038114;28;20477;-70
2023/06/01 05:57:35;;;;;;;16.83;7.85;;;;;;;-146.27;80.08;82924.59;5039597;28;20470;-71
2023/06/01 06:00:00;;;;;;;17.25;7.78;;;;;;;-146.27;80.14;82922.59;5046936;28;20029;-70
2023/06/01 06:02:27;;;;;;;16.00;8.57;;;;;;;-146.27;80.87;82900.47;5040090;28;20052;-71
2023/06/01 06:04:52;;;;;;;18.27;9.25;;;;;;;-146.27;81.44;82894.47;5058719;28;20023;-72
2023/06/01 06:07:18;;;;;;;15.13;9.13;;;;;;;-146.27;80.92;82898.47;5054414;28;20028;-73
2023/06/01 06:09:43;;;;;;;19.40;9.05;;;;;;;-146.27;81.47;82872.34;5061553;28;20024;-72
2023/06/01 06:12:08;;;;;;;22.23;9.27;;;;;;;-146.27;81.41;82826.16;5055424;28;20037;-72
2023/06/01 06:14:34;;;;;;;22.55;8.88;;;;;;;-146.27;81.57;82850.25;5059219;28;20052;-72
2023/06/01 06:17:00;;;;;;;18.05;8.50;;;;;;;-146.27;80.75;82769.91;5056874;28;20036;-72
2023/06/01 06:19:25;;;;;;;20.13;8.43;;;;;;;-146.27;80.74;82846.25;5051553;28;20036;-72
2023/06/01 06:21:51;;;;;;;24.27;8.82;;;;;;;-146.27;81.05;82808.06;5037624;28;20367;-73
2023/06/01 06:24:16;;;;;;;17.52;8.32;;;;;;;-146.27;80.21;82874.38;5042927;28;20342;-72
2023/06/01 06:26:41;;;;;;;17.95;8.55;;;;;;;-146.27;80.66;82818.13;5047456;28;20029;-72
2023/06/01 06:29:07;;;;;;;15.57;8.40;;;;;;;-146.27;80.10;82794.00;5040514;28;20079;-71
2023/06/01 06:31:32;;;;;;;16.63;9.02;;;;;;;-146.27;80.15;82789.97;5042437;28;20075;-71
2023/06/01 06:33:57;;;;;;;17.50;8.68;;;;;;;-146.27;80.02;82806.06;5048369;28;20030;-72
2023/06/01 06:36:23;;;;;;;16.83;8.48;;;;;;;-146.27;79.53;82822.13;5046494;28;20067;-70
2023/06/01 06:38:48;;;;;;;14.32;7.90;;;;;;;-146.27;79.42;82842.22;5046904;28;20071;-71
2023/06/01 06:41:13;;;;;;;19.73;8.40;;;;;;;-146.27;78.87;82743.78;5048680;28;20140;-70
2023/06/01 06:43:39;;;;;;;16.92;8.30;;;;;;;-146.27;79.31;82802.03;5051570;28;20028;-68
2023/06/01 06:46:04;;;;;;;16.13;7.90;;;;;;;-146.27;80.24;82773.91;5049205;28;20063;-71
2023/06/01 06:48:30;;;;;;;16.13;7.90;;;;;;;-146.27;79.37;82814.09;5040139;28;20021;-69
2023/06/01 06:50:56;;;;;;;16.52;8.15;;;;;;;-146.27;79.66;82800.03;5037454;28;20070;-70
2023/06/01 06:53:21;;;;;;;16.52;8.48;;;;;;;-146.27;79.01;82789.97;5053034;28;20104;-71
2023/06/01 06:55:47;;;;;;;19.63;8.18;;;;;;;-146.27;79.18;82775.91;5051748;28;20021;-72
2023/06/01 06:58:13;;;;;;;15.68;8.35;;;;;;;-146.27;79.61;82789.97;5053087;28;20469;-71
2023/06/01 07:00:39;;;;;;;11.85;7.85;;;;;;;-146.27;79.58;82775.91;5049400;28;20024;-71
2023/06/01 07:03:05;;;;;;;18.25;8.18;;;;;;;-146.27;78.32;82753.81;5041345;28;20036;-71
2023/06/01 07:05:30;;;;;;;16.10;8.20;;;;;;;-146.27;78.54;82689.53;5045583;28;20028;-71
2023/06/01 07:07:56;;;;;;;14.30;7.30;;;;;;;-146.27;77.54;82725.69;5035882;28;20079;-71
2023/06/01 07:10:21;;;;;;;16.42;7.30;;;;;;;-146.27;77.66;82705.59;5033425;28;20397;-71
2023/06/01 07:12:47;;;;;;;14.90;7.55;;;;;;;-146.27;76.52;82725.69;5033024;28;20089;-71
2023/06/01 07:15:12;;;;;;;20.98;7.07;;;;;;;-146.27;76.56;82675.47;5042131;28;20127;-71
2023/06/01 07:17:38;;;;;;;15.68;7.30;;;;;;;-146.27;76.21;82733.72;5036155;28;20489;-71
2023/06/01 07:20:07;;;;;;;17.65;7.55;;;;;;;-146.27;77.22;82743.78;5036511;28;20545;-72
2023/06/01 07:22:35;;;;;;;15.23;7.97;;;;;;;-146.27;74.91;82733.72;5037967;28;20600;-71
2023/06/01 07:25:00;;;;;;;15.55;6.55;;;;;;;-146.27;75.36;82673.47;5033235;28;20017;-71
2023/06/01 07:27:26;;;;;;;14.02;7.38;;;;;;;-146.27;75.65;82617.22;5035422;28;20607;-72
2023/06/01 07:29:54;;;;;;;11.90;7.13;;;;;;;-146.27;75.34;82657.41;5039750;28;20024;-70
2023/06/01 07:32:24;;;;;;;12.77;7.80;;;;;;;-146.27;76.32;82691.53;5051803;28;20044;-71
2023/06/01 07:34:50;;;;;;;13.10;7.13;;;;;;;-146.27;76.02;82665.44;5050910;28;20021;-71
2023/06/01 07:37:16;;;;;;;16.13;6.80;;;;;;;-146.27;75.97;82657.41;5052094;28;20081;-71
2023/06/01 07:39:41;;;;;;;10.20;6.00;;;;;;;-146.27;74.44;82625.25;5052313;28;20477;-70
2023/06/01 07:42:07;;;;;;;14.57;6.50;;;;;;;-146.27;74.13;82649.34;5051489;28;20048;-70
2023/06/01 07:44:33;;;;;;;10.73;5.95;;;;;;;-146.27;73.77;82661.41;5050957;28;20402;-70
2023/06/01 07:46:58;;;;;;;12.95;6.28;;;;;;;-146.27;74.50;82653.38;5046414;28;20035;-72
2023/06/01 07:49:24;;;;;;;9.15;5.68;;;;;;;-146.27;74.90;82679.50;5037617;28;20075;-76
2023/06/01 07:51:51;;;;;;;11.80;6.57;;;;;;;-146.27;74.50;82651.38;5044389;28;20072;-75
2023/06/01 07:54:17;;;;;;;12.90;5.53;;;;;;;-146.27;74.09;82583.06;5038284;28;20040;-74
2023/06/01 07:56:43;;;;;;;17.33;6.20;;;;;;;-146.27;73.31;82591.09;5044313;28;20107;-74
2023/06/01 07:59:08;;;;;;;13.32;6.47;;;;;;;-146.27;73.06;82534.84;5051495;28;20032;-75
2023/06/01 08:01:34;;;;;;;8.82;6.25;;;;;;;-146.27;72.39;82528.81;5036406;28;20488;-74
2023/06/01 08:04:01;;;;;;;10.10;6.13;;;;;;;-146.27;71.29;82488.66;5037815;28;20552;-75
2023/06/01 08:06:27;;;;;;;13.50;5.60;;;;;;;-146.27;72.87;82490.66;5047699;28;20033;-75
2023/06/01 08:08:52;;;;;;;11.73;5.93;;;;;;;-146.27;72.05;82504.72;5051890;28;20530;-76
2023/06/01 08:11:18;;;;;;;8.07;5.32;;;;;;;-146.27;70.51;82430.38;5051886;28;20523;-76
2023/06/01 08:13:45;;;;;;;13.27;5.68;;;;;;;-146.27;71.11;82456.50;5050633;28;20517;-76
2023/06/01 08:16:13;;;;;;;9.35;5.10;;;;;;;-146.27;71.21;82436.41;5050556;28;20419;-74
2023/06/01 08:18:38;;;;;;;11.80;5.50;;;;;;;-146.27;70.21;82392.22;5050227;28;20035;-77
2023/06/01 08:21:04;;;;;;;8.15;4.90;;;;;;;-146.27;69.61;82344.00;5051871;28;20032;-75
2023/06/01 08:23:30;;;;;;;16.73;5.88;;;;;;;-146.27;68.00;82358.06;5050128;28;20036;-76
2023/06/01 08:25:55;;;;;;;10.60;6.00;;;;;;;-146.27;67.56;82299.81;5070949;28;20424;-76
2023/06/01 08:28:21;;;;;;;9.60;5.53;;;;;;;-146.27;67.27;82305.84;5071266;28;20025;-77
2023/06/01 08:30:46;;;;;;;16.85;5.97;;;;;;;-146.27;67.93;82259.66;5071375;28;20056;-76
2023/06/01 08:33:12;;;;;;;8.85;5.30;;;;;;;-146.27;66.91;82259.66;5071223;28;20021;-75
2023/06/01 08:35:37;;;;;;;9.55;5.13;;;;;;;-146.27;65.92;82187.31;5051735;28;20486;-75
2023/06/01 08:38:03;;;;;;;8.43;5.50;;;;;;;-146.27;65.12;82185.31;5051349;28;20488;-74
2023/06/01 08:40:31;;;;;;;8.82;5.25;;;;;;;-146.27;65.14;82207.41;5041755;28;20029;-75
2023/06/01 08:43:12;;;;;;;9.27;5.28;;;;;;;-146.27;65.36;82229.50;5042402;28;20033;-74
2023/06/01 08:45:38;;;;;;;7.25;4.68;;;;;;;-146.27;65.88;82203.41;5038803;28;20025;-75
2023/06/01 08:48:08;;;;;;;7.75;4.55;;;;;;;-146.27;65.98;82193.34;5033292;28;20029;-75
2023/06/01 08:50:34;;;;;;;8.05;4.45;;;;;;;-146.27;65.01;82155.19;5041548;28;20027;-75
2023/06/01 08:53:01;;;;;;;11.90;4.18;;;;;;;-146.27;64.76;82137.13;5042463;28;20041;-75
2023/06/01 08:55:28;;;;;;;8.43;4.57;;;;;;;-146.27;63.35;82066.81;5032678;28;20233;-75
2023/06/01 08:57:54;;;;;;;10.70;5.75;;;;;;;-146.27;63.70;82127.06;5060262;28;20511;-75
2023/06/01 09:00:20;;;;;;;8.25;4.68;;;;;;;-146.27;61.43;82078.84;5068209;28;20029;-75
2023/06/01 09:02:46;;;;;;;10.13;4.68;;;;;;;-146.27;61.40;82030.66;5048072;28;20037;-75
2023/06/01 09:05:12;;;;;;;14.10;5.55;;;;;;;-146.27;63.79;82062.78;5060796;28;20131;-75
2023/06/01 09:07:39;;;;;;;10.95;5.18;;;;;;;-146.27;62.02;81990.47;5045120;28;20021;-75
2023/06/01 09:10:05;;;;;;;8.90;4.88;;;;;;;-146.27;62.56;81960.34;5062058;28;20664;-75
2023/06/01 09:12:31;;;;;;;9.88;5.32;;;;;;;-146.27;63.09;81922.19;5050734;28;20053;-76
2023/06/01 09:15:16;;;;;;;9.13;4.85;;;;;;;-146.27;60.44;81910.13;5060052;28;20039;-76
2023/06/01 09:17:49;;;;;;;11.82;4.88;;;;;;;-146.27;60.73;82008.56;5058008;28;20376;-76
2023/06/01 09:20:37;;;;;;;11.10;5.25;;;;;;;-146.27;59.30;81950.31;5045555;28;20128;-75
2023/06/01 09:23:02;;;;;;;9.43;4.57;;;;;;;-146.27;60.03;81964.38;5042117;28;20047;-75
2023/06/01 09:25:30;;;;;;;8.80;4.25;;;;;;;-146.27;58.89;81873.97;5038917;28;20520;-74
2023/06/01 09:27:58;;;;;;;9.70;4.82;;;;;;;-146.27;58.70;81793.66;5049011;28;20047;-74
2023/06/01 09:30:26;;;;;;;11.02;4.50;;;;;;;-146.27;56.90;81863.94;5064645;28;20024;-76
2023/06/01 09:33:21;;;;;;;8.90;4.03;;;;;;;-146.27;55.57;81873.97;5052293;28;20032;-75
2023/06/01 09:35:48;;;;;;;9.55;4.72;;;;;;;-146.27;58.55;81942.28;5041952;28;20025;-75
2023/06/01 09:38:22;;;;;;;10.23;4.25;;;;;;;-146.27;56.92;81894.06;5051554;28;20072;-75
2023/06/01 09:41:02;;;;;;;9.88;4.28;;;;;;;-146.27;57.84;81916.16;5052201;28;20035;-77
2023/06/01 09:43:28;;;;;;;11.95;4.30;;;;;;;-146.27;59.03;81871.97;5063325;28;20083;-77
2023/06/01 09:46:13;;;;;;;9.50;4.47;;;;;;;-146.27;59.37;81817.75;5048534;28;20415;-78
2023/06/01 09:48:38;;;;;;;7.50;4.60;;;;;;;-146.27;58.87;81781.59;5050193;28;20017;-75
2023/06/01 09:51:05;;;;;;;8.07;4.22;;;;;;;-146.27;54.37;81737.41;5048161;28;20434;-75
2023/06/01 09:53:41;;;;;;;11.63;4.25;;;;;;;-146.27;56.98;81697.22;5051717;28;20041;-77
2023/06/01 09:56:06;;;;;;;12.95;5.00;;;;;;;-146.27;57.37;81661.09;5047927;28;20501;-77
2023/06/01 09:58:34;;;;;;;11.90;4.70;;;;;;;-146.27;55.16;81703.25;5035115;28;20100;-77
2023/06/01 10:01:00;;;;;;;14.98;5.40;;;;;;;-146.27;54.25;81693.22;5048774;28;20393;-76
2023/06/01 10:03:26;;;;;;;8.15;4.15;;;;;;;-146.27;56.44;81677.16;5040849;28;20025;-76
2023/06/01 10:05:52;;;;;;;13.88;3.95;;;;;;;-146.27;55.37;81673.13;5038580;28;20070;-78
2023/06/01 10:08:18;;;;;;;6.13;4.18;;;;;;;-146.27;55.84;81586.78;5042553;28;20644;-77
2023/06/01 10:10:47;;;;;;;8.55;4.57;;;;;;;-146.27;52.33;81634.97;5036677;28;20108;-77
2023/06/01 10:13:13;;;;;;;8.35;4.05;;;;;;;-146.27;52.72;81562.66;5040593;28;20049;-78
2023/06/01 10:15:38;;;;;;;6.63;3.97;;;;;;;-146.27;52.14;81538.56;5035235;28;20037;-77
2023/06/01 10:18:05;;;;;;;10.85;4.13;;;;;;;-146.27;53.70;81504.44;5033716;28;20404;-78
2023/06/01 10:20:37;;;;;;;8.75;4.20;;;;;;;-146.27;52.37;81500.41;5043397;28;20425;-76
2023/06/01 10:23:04;;;;;;;7.30;4.43;;;;;;;-146.27;53.45;81506.44;5052228;28;20512;-78
2023/06/01 10:25:38;;;;;;;5.18;3.95;;;;;;;-146.27;51.76;81436.16;5050955;28;20272;-77
2023/06/01 10:28:07;;;;;;;8.57;3.75;;;;;;;-146.27;52.57;81434.13;5038149;28;20036;-76
2023/06/01 10:30:34;;;;;;;14.30;4.53;;;;;;;-146.27;52.16;81462.25;5034077;28;20481;-76
2023/06/01 10:33:00;;;;;;;6.38;4.22;;;;;;;-146.27;49.48;81444.19;5033410;28;20481;-76
2023/06/01 10:35:28;;;;;;;8.07;3.95;;;;;;;-146.27;49.29;81424.09;5050049;28;20047;-77
2023/06/01 10:38:14;;;;;;;10.02;4.03;;;;;;;-146.27;49.12;81359.81;5053361;28;20469;-76
2023/06/01 10:40:43;;;;;;;9.25;4.00;;;;;;;-146.27;51.63;81347.78;5049064;28;20041;-78
2023/06/01 10:43:39;;;;;;;8.15;3.75;;;;;;;-146.27;48.84;81291.53;5047462;28;20104;-77
2023/06/01 10:46:32;;;;;;;8.63;4.43;;;;;;;-146.27;49.25;81255.41;5033464;28;20037;-76
2023/06/01 10:48:58;;;;;;;8.70;3.73;;;;;;;-146.27;48.98;81195.16;5033576;28;20030;-75
2023/06/01 10:51:24;;;;;;;7.60;4.50;;;;;;;-146.27;48.90;81209.22;5026064;28;20298;-76
2023/06/01 10:53:50;;;;;;;5.80;3.70;;;;;;;-146.27;48.63;81299.59;5026819;28;20056;-77
2023/06/01 10:56:28;;;;;;;12.05;3.72;;;;;;;-146.27;50.45;81267.44;5040414;28;20032;-78
2023/06/01 10:59:08;;;;;;;6.72;3.63;;;;;;;-146.27;48.57;81203.19;5038731;28;20116;-74
2023/06/01 11:01:36;;;;;;;12.65;4.90;;;;;;;-146.27;49.51;81227.28;5046006;28;20029;-75
2023/06/01 11:04:02;;;;;;;13.98;4.07;;;;;;;-146.27;48.71;81134.91;5046037;28;20485;-74
2023/06/01 11:06:35;;;;;;;10.02;4.47;;;;;;;-146.27;49.48;81122.84;5032956;28;20029;-76
2023/06/01 11:09:05;;;;;;;10.95;3.67;;;;;;;-146.27;48.90;81102.78;5033068;28;20562;-77
2023/06/01 11:11:51;;;;;;;7.50;3.95;;;;;;;-146.27;49.52;81010.41;5042712;28;20060;-76
2023/06/01 11:14:25;;;;;;;6.05;3.70;;;;;;;-146.27;47.42;80922.03;5044195;28;20508;-76